Salem, NH

7:35 PM EST on December 22, 2014 (GMT -0500)
N1EXT | Change Station
CLOSE
Current Station
Personal Weather Station
Location: Salem, NH
Elevation: 233 ft
Nearby Weather Stations

Elev 233 ft 42.80 °N, 71.21 °W | Updated 20 seconds ago

Overcast
Overcast
36.7 °F
Feels Like 37 °F
N
0.0
Wind Variable Wind from East
Gusts 0.0 mph

Today
High -- | Low -- °F
--% Chance of Precip.
Yesterday
High -- | Low -- °F
Precip. -- in
7:12 AM 4:14 PM
New Moon, 1% visible
Pressure 30.36 in
Visibility 5.0 miles
Clouds Overcast 400 ft
Windchill 37 °F
Dew Point 19 °F
Humidity 49%
Rainfall 0.00 in
Snow Depth Not available.
UV 0 out of 12
Pollen .10 out of 12
Air Quality Not available.
Flu Activity Not available.
METAR KLWM 222354Z 02005KT 5SM -RA BR OVC004 03/02 A3035 RMK AO2 RAE12B33 SLP280 P0001 60002 T00280022 10044 20028 51000

More Conditions Fewer Conditions

Pressure 30.36 in
Visibility 5.0 miles
Clouds Overcast 400 ft
Windchill 37 °F
Dew Point 19 °F
Humidity 49%
Rainfall 0.00 in
Snow Depth Not available.
UV 0 out of 12
Pollen .10 out of 12
Air Quality Not available.
Flu Activity Not available.
METAR KLWM 222354Z 02005KT 5SM -RA BR OVC004 03/02 A3035 RMK AO2 RAE12B33 SLP280 P0001 60002 T00280022 10044 20028 51000

More Conditions Fewer Conditions

10-Day Weather Forecast

Almanac

Astronomy

Dec. 22, 2014 Rise Set
Actual Time
Civil Twilight
Nautical Twilight
Astronomical Twilight
Moon
Length of Visible Light
Length of Day
Tomorrow will be .
, % of the Moon is Illuminated

Today's Extremes

State Highs State Lows

Community

WunderPhotos

Upload Photos

1,779,738 photos uploaded!

WunderBlogs® & News

Nearby

Air Quality

  Air Quality AQ Index Pollutant
Not available.

Snow Depth

Station Depth Elevation

Earthquake Activity

City Distance Mag. Time & Date
Minimum magnitude displayed is 2.5.

Coastal Water Temperatures

Place Temperature

Nearby Weather Stations